createdAt,value
2022-12-23T00:01:52.546Z,87.20
2022-12-23T00:04:21.896Z,87.00
2022-12-23T00:06:48.569Z,87.10
2022-12-23T00:09:15.139Z,87.20
2022-12-23T00:12:01.667Z,87.10
2022-12-23T00:14:51.477Z,87.00
2022-12-23T00:17:22.611Z,86.90
2022-12-23T00:19:49.713Z,87.00
2022-12-23T00:22:16.282Z,86.90
2022-12-23T00:24:43.028Z,86.90
2022-12-23T00:27:09.577Z,87.10
2022-12-23T00:29:36.159Z,87.10
2022-12-23T00:32:02.759Z,87.20
2022-12-23T00:34:29.377Z,87.10
2022-12-23T00:36:55.978Z,87.10
2022-12-23T00:39:41.505Z,87.00
2022-12-23T00:42:27.137Z,87.10
2022-12-23T00:45:13.677Z,87.20
2022-12-23T00:47:59.112Z,87.10
2022-12-23T00:50:25.805Z,87.10
2022-12-23T00:52:52.389Z,87.00
2022-12-23T00:55:19.264Z,86.90
2022-12-23T00:57:45.837Z,87.00
2022-12-23T01:00:12.749Z,86.90
2022-12-23T01:02:58.263Z,86.80
2022-12-23T01:05:37.037Z,86.90
2022-12-23T01:08:12.711Z,86.90
2022-12-23T01:10:40.128Z,86.90
2022-12-23T01:13:06.988Z,86.90
2022-12-23T01:15:33.737Z,86.80
2022-12-23T01:18:00.338Z,86.80
2022-12-23T01:20:26.959Z,86.70
2022-12-23T01:22:53.507Z,86.80
2022-12-23T01:25:20.087Z,86.90
2022-12-23T01:27:46.674Z,86.80
2022-12-23T01:30:13.386Z,86.80
2022-12-23T01:32:39.914Z,86.80
2022-12-23T01:35:06.624Z,86.80
2022-12-23T01:37:33.186Z,86.80
2022-12-23T01:39:59.900Z,86.90
2022-12-23T01:42:44.899Z,86.80
2022-12-23T01:45:24.779Z,86.80
2022-12-23T01:48:14.406Z,86.70
2022-12-23T01:50:54.700Z,86.80
2022-12-23T01:53:25.940Z,86.80
2022-12-23T01:55:59.272Z,86.80
2022-12-23T01:58:27.613Z,86.70
2022-12-23T02:01:13.927Z,86.70
2022-12-23T02:03:43.496Z,86.80
2022-12-23T02:06:30.609Z,86.80
2022-12-23T02:09:15.705Z,86.60
2022-12-23T02:12:06.473Z,86.70
2022-12-23T02:15:10.913Z,86.80
2022-12-23T02:17:47.900Z,86.80
2022-12-23T02:20:33.119Z,86.70
2022-12-23T02:22:59.774Z,86.70
2022-12-23T02:25:52.505Z,86.70
2022-12-23T02:28:39.439Z,86.70
2022-12-23T02:31:32.430Z,86.90
2022-12-23T02:34:04.684Z,87.00
2022-12-23T02:36:37.099Z,87.10
2022-12-23T02:39:09.105Z,87.20
2022-12-23T02:41:42.809Z,88.10
2022-12-23T02:44:17.182Z,88.20
2022-12-23T02:46:49.895Z,88.00
2022-12-23T02:49:29.386Z,87.60
2022-12-23T02:51:58.224Z,87.40
2022-12-23T02:54:28.476Z,87.30
2022-12-23T02:56:56.767Z,87.10
2022-12-23T02:59:26.052Z,87.10
2022-12-23T03:01:53.749Z,87.00
2022-12-23T03:04:20.543Z,87.10
2022-12-23T03:06:51.952Z,87.10
2022-12-23T03:09:38.785Z,86.90
2022-12-23T03:12:17.640Z,87.00
2022-12-23T03:14:50.327Z,87.10
2022-12-23T03:17:16.899Z,87.00
2022-12-23T03:19:50.059Z,87.00
2022-12-23T03:22:22.593Z,87.00
2022-12-23T03:25:07.973Z,87.00
2022-12-23T03:27:47.163Z,86.90
2022-12-23T03:30:15.055Z,86.90
2022-12-23T03:32:52.374Z,86.90
2022-12-23T03:35:21.386Z,87.20
2022-12-23T03:37:49.321Z,87.10
2022-12-23T03:40:23.791Z,87.10
2022-12-23T03:42:54.251Z,87.00
2022-12-23T03:45:40.635Z,86.90
2022-12-23T03:48:23.330Z,86.90
2022-12-23T03:50:52.287Z,87.00
2022-12-23T03:53:21.728Z,87.00
2022-12-23T03:55:54.202Z,86.90
2022-12-23T03:58:42.416Z,86.90
2022-12-23T04:01:18.440Z,86.90
2022-12-23T04:03:45.122Z,86.90
2022-12-23T04:06:14.628Z,86.90
2022-12-23T04:08:42.388Z,86.80
2022-12-23T04:11:09.235Z,86.80
2022-12-23T04:13:38.557Z,86.80
2022-12-23T04:16:05.577Z,86.70
2022-12-23T04:18:32.216Z,86.70
2022-12-23T04:20:59.266Z,86.80
2022-12-23T04:23:25.879Z,86.60
2022-12-23T04:25:52.538Z,86.70
2022-12-23T04:28:20.040Z,86.70
2022-12-23T04:30:46.664Z,86.80
2022-12-23T04:33:13.252Z,86.70
2022-12-23T04:35:39.938Z,86.60
2022-12-23T04:38:06.594Z,86.80
2022-12-23T04:40:33.237Z,86.70
2022-12-23T04:42:59.818Z,86.70
2022-12-23T04:45:26.437Z,86.70
2022-12-23T04:47:54.404Z,86.70
2022-12-23T04:50:20.994Z,86.70
2022-12-23T04:52:47.652Z,86.80
2022-12-23T04:55:14.249Z,86.70
2022-12-23T04:57:40.820Z,86.60
2022-12-23T05:00:07.739Z,86.70
2022-12-23T05:02:34.411Z,86.70
2022-12-23T05:05:01.180Z,86.60
2022-12-23T05:07:27.762Z,86.60
2022-12-23T05:09:54.301Z,86.60
2022-12-23T05:12:20.888Z,86.60
2022-12-23T05:14:47.491Z,86.60
2022-12-23T05:17:14.184Z,86.60
2022-12-23T05:19:40.744Z,86.50
2022-12-23T05:22:07.317Z,86.60
2022-12-23T05:24:33.877Z,86.60
2022-12-23T05:27:00.787Z,86.60
2022-12-23T05:29:27.657Z,86.60
2022-12-23T05:31:54.403Z,86.50
2022-12-23T05:34:21.431Z,86.50
2022-12-23T05:36:48.015Z,86.50
2022-12-23T05:39:14.653Z,86.60
2022-12-23T05:41:41.215Z,86.80
2022-12-23T05:44:07.859Z,86.60
2022-12-23T05:46:34.685Z,87.10
2022-12-23T05:49:01.335Z,87.40
2022-12-23T05:51:27.969Z,87.20
2022-12-23T05:53:54.515Z,87.20
2022-12-23T05:56:21.114Z,87.10
2022-12-23T05:58:47.713Z,86.90
2022-12-23T06:01:14.353Z,86.90
2022-12-23T06:03:41.130Z,86.90
2022-12-23T06:06:08.263Z,86.80
2022-12-23T06:08:34.846Z,86.70
2022-12-23T06:11:03.845Z,86.80
2022-12-23T06:13:30.449Z,86.80
2022-12-23T06:15:57.104Z,86.80
2022-12-23T06:18:23.716Z,86.60
2022-12-23T06:20:50.319Z,86.70
2022-12-23T06:23:16.941Z,86.60
2022-12-23T06:25:43.525Z,86.80
2022-12-23T06:28:10.151Z,86.60
2022-12-23T06:30:36.766Z,86.80
2022-12-23T06:33:03.424Z,86.70
2022-12-23T06:35:30.098Z,86.80
2022-12-23T06:37:56.681Z,86.60
2022-12-23T06:40:23.309Z,86.60
2022-12-23T06:42:50.227Z,86.40
2022-12-23T06:45:16.874Z,86.60
2022-12-23T06:47:43.476Z,86.40
2022-12-23T06:50:10.370Z,86.50
2022-12-23T06:52:36.963Z,86.50
2022-12-23T06:55:03.742Z,86.50
2022-12-23T06:57:30.367Z,86.40
2022-12-23T06:59:56.986Z,86.50
2022-12-23T07:02:23.677Z,86.50
2022-12-23T07:04:51.473Z,86.40
2022-12-23T07:07:18.081Z,86.50
2022-12-23T07:09:44.656Z,86.40
2022-12-23T07:12:11.422Z,86.50
2022-12-23T07:14:38.039Z,86.50
2022-12-23T07:17:04.666Z,86.50
2022-12-23T07:19:31.279Z,86.50
2022-12-23T07:21:57.909Z,86.50
2022-12-23T07:24:24.491Z,86.50
2022-12-23T07:26:51.475Z,86.40
2022-12-23T07:29:18.041Z,86.50
2022-12-23T07:31:44.716Z,86.50
2022-12-23T07:34:11.455Z,86.50
2022-12-23T07:36:38.075Z,86.40
2022-12-23T07:39:04.892Z,86.40
2022-12-23T07:41:31.519Z,86.40
2022-12-23T07:43:58.254Z,86.40
2022-12-23T07:46:24.908Z,86.40
2022-12-23T07:48:51.569Z,86.40
2022-12-23T07:51:18.158Z,86.50
2022-12-23T07:53:48.030Z,86.40
2022-12-23T07:56:14.588Z,86.40
2022-12-23T07:58:41.212Z,86.50
2022-12-23T08:01:08.173Z,86.40
2022-12-23T08:03:35.168Z,86.40
2022-12-23T08:06:03.244Z,86.20
2022-12-23T08:08:29.929Z,86.30
2022-12-23T08:10:57.521Z,86.30
2022-12-23T08:13:24.105Z,86.30
2022-12-23T08:15:54.070Z,86.60
2022-12-23T08:18:20.623Z,86.40
2022-12-23T08:20:56.639Z,86.40
2022-12-23T08:23:25.019Z,86.40
2022-12-23T08:26:01.010Z,86.30
2022-12-23T08:28:28.026Z,86.30
2022-12-23T08:30:54.662Z,86.30
2022-12-23T08:33:21.521Z,86.40
2022-12-23T08:35:48.207Z,86.30
2022-12-23T08:38:14.816Z,87.10
2022-12-23T08:40:41.580Z,87.60
2022-12-23T08:43:08.337Z,88.10
2022-12-23T08:45:38.587Z,88.20
2022-12-23T08:48:06.077Z,88.00
2022-12-23T08:50:39.909Z,88.20
2022-12-23T08:53:06.524Z,88.20
2022-12-23T08:55:40.571Z,88.30
2022-12-23T08:58:08.182Z,88.40
2022-12-23T09:00:35.575Z,88.10
2022-12-23T09:03:02.528Z,87.90
2022-12-23T09:05:29.249Z,87.90
2022-12-23T09:07:56.043Z,87.90
2022-12-23T09:10:23.365Z,87.80
2022-12-23T09:12:50.056Z,87.60
2022-12-23T09:15:16.666Z,87.70
2022-12-23T09:17:44.438Z,87.60
2022-12-23T09:20:11.242Z,87.50
2022-12-23T09:22:37.900Z,87.50
2022-12-23T09:25:05.459Z,87.40
2022-12-23T09:27:32.215Z,87.30
2022-12-23T09:29:58.788Z,87.40
2022-12-23T09:32:25.347Z,87.20
2022-12-23T09:34:52.066Z,87.30
2022-12-23T09:37:18.793Z,87.40
2022-12-23T09:39:45.438Z,87.10
2022-12-23T09:42:24.386Z,87.10
2022-12-23T09:45:04.793Z,87.10
2022-12-23T09:47:32.767Z,87.00
2022-12-23T09:50:02.299Z,87.00
2022-12-23T09:52:34.748Z,87.00
2022-12-23T09:55:01.379Z,87.00
2022-12-23T09:57:31.012Z,87.20
2022-12-23T10:00:10.071Z,87.40
2022-12-23T10:02:55.440Z,87.50
2022-12-23T10:05:26.363Z,87.50
2022-12-23T10:07:57.768Z,87.40
2022-12-23T10:10:29.314Z,87.20
2022-12-23T10:12:57.820Z,87.30
2022-12-23T10:15:30.368Z,87.00
2022-12-23T10:17:59.090Z,87.00
2022-12-23T10:20:33.070Z,87.10
2022-12-23T10:22:59.679Z,87.10
2022-12-23T10:25:29.024Z,87.00
2022-12-23T10:27:55.800Z,87.00
2022-12-23T10:33:23.482Z,86.80
2022-12-23T10:35:56.227Z,86.90
2022-12-23T10:38:25.580Z,86.90
2022-12-23T10:41:05.376Z,88.90
2022-12-23T10:43:54.451Z,89.90
2022-12-23T10:46:21.149Z,89.60
2022-12-23T10:49:08.033Z,89.70
2022-12-23T10:51:39.612Z,89.70
2022-12-23T10:54:09.677Z,89.50
2022-12-23T10:56:36.239Z,89.40
2022-12-23T10:59:03.169Z,89.00
2022-12-23T11:01:30.452Z,88.70
2022-12-23T11:04:03.614Z,88.70
2022-12-23T11:06:36.846Z,88.60
2022-12-23T11:09:05.189Z,88.40
2022-12-23T11:11:50.432Z,88.30
2022-12-23T11:14:43.337Z,88.30
2022-12-23T11:17:29.075Z,88.40
2022-12-23T11:20:10.697Z,88.20
2022-12-23T11:22:47.156Z,88.20
2022-12-23T11:25:24.909Z,88.30
2022-12-23T11:27:54.253Z,88.40
2022-12-23T11:30:21.087Z,88.30
2022-12-23T11:32:47.856Z,88.40
2022-12-23T11:35:25.634Z,88.30
2022-12-23T11:37:52.304Z,88.40
2022-12-23T11:40:29.358Z,88.50
2022-12-23T11:42:57.887Z,88.60
2022-12-23T11:45:26.407Z,88.50
2022-12-23T11:47:53.063Z,88.50
2022-12-23T11:50:22.823Z,88.10
2022-12-23T11:52:50.903Z,88.10
2022-12-23T11:55:25.313Z,87.80
2022-12-23T11:57:52.271Z,87.70
2022-12-23T12:00:19.345Z,87.80
2022-12-23T12:02:46.846Z,88.00
2022-12-23T12:05:21.335Z,87.80
2022-12-23T12:07:48.660Z,87.70
2022-12-23T12:10:17.679Z,87.80
2022-12-23T12:12:45.413Z,87.50
2022-12-23T12:15:25.320Z,87.60
2022-12-23T12:17:52.598Z,87.50
2022-12-23T12:20:22.205Z,87.40
2022-12-23T12:22:54.448Z,87.20
2022-12-23T12:25:23.359Z,87.10
2022-12-23T12:27:54.076Z,87.20
2022-12-23T12:30:21.093Z,87.00
2022-12-23T12:32:47.727Z,87.10
2022-12-23T12:35:21.698Z,87.00
2022-12-23T12:37:51.041Z,87.00
2022-12-23T12:40:30.218Z,86.90
2022-12-23T12:42:59.835Z,86.90
2022-12-23T12:45:30.618Z,86.90
2022-12-23T12:48:16.012Z,87.00
2022-12-23T12:50:50.826Z,86.80
2022-12-23T12:53:21.798Z,86.60
2022-12-23T12:55:50.966Z,86.60
2022-12-23T12:58:22.340Z,86.70
2022-12-23T13:01:09.192Z,86.60
2022-12-23T13:03:38.833Z,86.80
2022-12-23T13:06:25.820Z,86.60
2022-12-23T13:09:02.532Z,86.60
2022-12-23T13:11:45.154Z,86.70
2022-12-23T13:14:15.107Z,86.40
2022-12-23T13:16:50.241Z,86.40
2022-12-23T13:19:29.163Z,86.30
2022-12-23T13:22:13.159Z,86.20
2022-12-23T13:24:54.557Z,86.50
2022-12-23T13:27:33.694Z,86.80
2022-12-23T13:30:00.287Z,87.80
2022-12-23T13:32:36.044Z,87.60
2022-12-23T13:35:21.508Z,87.00
2022-12-23T13:37:58.601Z,86.70
2022-12-23T13:40:41.696Z,86.60
2022-12-23T13:43:14.599Z,86.40
2022-12-23T13:45:41.552Z,86.60
2022-12-23T13:48:20.420Z,86.80
2022-12-23T13:51:05.444Z,86.50
2022-12-23T13:53:39.886Z,87.60
2022-12-23T13:56:16.997Z,88.30
2022-12-23T13:58:46.785Z,88.30
2022-12-23T14:01:16.193Z,87.60
2022-12-23T14:03:43.353Z,87.30
2022-12-23T14:06:18.961Z,87.60
2022-12-23T14:08:47.469Z,87.40
2022-12-23T14:11:16.959Z,87.40
2022-12-23T14:13:55.624Z,88.10
2022-12-23T14:16:40.815Z,87.70
2022-12-23T14:19:14.147Z,87.40
2022-12-23T14:21:40.714Z,88.20
2022-12-23T14:24:33.044Z,88.20
2022-12-23T14:27:02.610Z,87.60
2022-12-23T14:29:35.344Z,87.10
2022-12-23T14:32:01.999Z,86.40
2022-12-23T14:34:31.203Z,86.00
2022-12-23T14:37:17.109Z,85.80
2022-12-23T14:39:43.698Z,86.20
2022-12-23T14:42:14.970Z,87.50
2022-12-23T14:44:46.243Z,87.70
2022-12-23T14:47:30.021Z,87.60
2022-12-23T14:49:56.705Z,87.90
2022-12-23T14:52:39.402Z,87.90
2022-12-23T14:55:30.699Z,87.60
2022-12-23T14:58:20.638Z,87.40
2022-12-23T15:00:49.792Z,87.00
2022-12-23T15:03:20.201Z,86.80
2022-12-23T15:05:47.020Z,86.50
2022-12-23T15:08:30.127Z,86.60
2022-12-23T15:10:57.301Z,86.50
2022-12-23T15:13:25.528Z,86.50
2022-12-23T15:15:58.938Z,86.50
2022-12-23T15:18:28.443Z,86.40
2022-12-23T15:21:09.690Z,86.40
2022-12-23T15:23:36.264Z,86.30
2022-12-23T15:26:03.021Z,86.10
2022-12-23T15:28:40.784Z,86.20
2022-12-23T15:31:15.970Z,86.20
2022-12-23T15:34:04.164Z,86.20
2022-12-23T15:36:35.643Z,86.10
2022-12-23T15:39:07.198Z,86.10
2022-12-23T15:41:40.972Z,86.10
2022-12-23T15:44:11.069Z,85.90
2022-12-23T15:46:39.094Z,86.20
2022-12-23T15:49:06.688Z,86.20
2022-12-23T15:52:07.268Z,86.30
2022-12-23T15:54:33.135Z,86.50
2022-12-23T15:57:00.863Z,86.50
2022-12-23T15:59:31.900Z,86.40
2022-12-23T16:01:58.679Z,86.90
2022-12-23T16:04:27.322Z,87.20
2022-12-23T16:06:54.183Z,87.10
2022-12-23T16:09:20.729Z,86.90
2022-12-23T16:11:53.655Z,87.20
2022-12-23T16:14:22.117Z,86.90
2022-12-23T16:16:50.545Z,86.80
2022-12-23T16:19:35.597Z,86.60
2022-12-23T16:22:14.156Z,86.90
2022-12-23T16:24:45.399Z,87.10
2022-12-23T16:27:16.327Z,86.90
2022-12-23T16:29:43.110Z,86.80
2022-12-23T16:32:14.018Z,86.80
2022-12-23T16:34:40.677Z,86.70
2022-12-23T16:37:07.628Z,86.80
2022-12-23T16:39:34.212Z,86.60
2022-12-23T16:42:00.777Z,86.60
2022-12-23T16:44:27.344Z,86.60
2022-12-23T16:46:54.000Z,86.60
2022-12-23T16:49:21.851Z,86.60
2022-12-23T16:51:48.857Z,86.90
2022-12-23T16:54:17.452Z,87.00
2022-12-23T16:56:46.400Z,87.20
2022-12-23T16:59:13.203Z,87.40
2022-12-23T17:01:41.960Z,87.20
2022-12-23T17:04:08.795Z,87.10
2022-12-23T17:06:35.892Z,87.00
2022-12-23T17:09:02.991Z,87.00
2022-12-23T17:11:44.052Z,86.60
2022-12-23T17:14:15.888Z,86.90
2022-12-23T17:16:42.820Z,86.60
2022-12-23T17:19:09.553Z,86.90
2022-12-23T17:21:39.545Z,86.60
2022-12-23T17:24:07.244Z,86.60
2022-12-23T17:26:33.852Z,86.80
2022-12-23T17:29:01.741Z,86.60
2022-12-23T17:31:28.395Z,86.60
2022-12-23T17:33:55.069Z,86.70
2022-12-23T17:36:22.003Z,86.80
2022-12-23T17:38:48.713Z,86.80
2022-12-23T17:41:33.472Z,86.80
2022-12-23T17:44:00.788Z,86.50
2022-12-23T17:46:28.698Z,86.90
2022-12-23T17:48:57.101Z,87.20
2022-12-23T17:51:23.807Z,87.40
2022-12-23T17:53:55.264Z,87.10
2022-12-23T17:56:24.590Z,86.90
2022-12-23T17:58:51.437Z,87.00
2022-12-23T18:01:20.049Z,86.80
2022-12-23T18:03:46.994Z,86.80
2022-12-23T18:06:14.603Z,86.80
2022-12-23T18:08:41.464Z,86.60
2022-12-23T18:11:08.963Z,86.60
2022-12-23T18:13:35.568Z,86.80
2022-12-23T18:16:02.153Z,86.60
2022-12-23T18:18:37.725Z,86.60
2022-12-23T18:21:11.916Z,86.60
2022-12-23T18:23:38.563Z,86.50
2022-12-23T18:26:05.137Z,86.60
2022-12-23T18:28:31.758Z,86.50
2022-12-23T18:30:58.347Z,86.40
2022-12-23T18:33:28.601Z,86.40
2022-12-23T18:35:55.267Z,86.30
2022-12-23T18:38:21.863Z,87.20
2022-12-23T18:40:51.929Z,87.20
2022-12-23T18:43:20.009Z,87.20
2022-12-23T18:45:52.427Z,87.00
2022-12-23T18:48:20.016Z,86.90
2022-12-23T18:50:46.721Z,86.90
2022-12-23T18:53:23.338Z,86.90
2022-12-23T18:55:51.365Z,87.10
2022-12-23T18:58:18.094Z,87.60
2022-12-23T19:00:44.929Z,87.60
2022-12-23T19:03:20.554Z,87.50
2022-12-23T19:05:47.649Z,87.40
2022-12-23T19:08:23.626Z,87.40
2022-12-23T19:10:52.995Z,87.20
2022-12-23T19:13:19.969Z,87.10
2022-12-23T19:15:46.724Z,86.90
2022-12-23T19:18:18.509Z,86.70
2022-12-23T19:20:46.082Z,86.80
2022-12-23T19:23:13.200Z,86.80
2022-12-23T19:25:40.467Z,86.80
2022-12-23T19:28:07.084Z,86.60
2022-12-23T19:30:34.499Z,86.50
2022-12-23T19:33:01.195Z,86.70
2022-12-23T19:35:27.768Z,86.50
2022-12-23T19:37:54.589Z,86.60
2022-12-23T19:40:21.198Z,86.50
2022-12-23T19:42:47.898Z,86.40
2022-12-23T19:45:14.522Z,86.40
2022-12-23T19:47:41.066Z,86.40
2022-12-23T19:50:08.166Z,86.40
2022-12-23T19:52:34.797Z,86.30
2022-12-23T19:55:01.388Z,86.40
2022-12-23T19:57:28.030Z,86.20
2022-12-23T19:59:54.624Z,86.20
2022-12-23T20:02:21.304Z,86.20
2022-12-23T20:04:47.967Z,86.20
2022-12-23T20:07:14.740Z,86.20
2022-12-23T20:09:41.307Z,86.30
2022-12-23T20:12:07.915Z,86.20
2022-12-23T20:18:03.454Z,86.10
2022-12-23T20:20:30.121Z,86.20
2022-12-23T20:22:56.758Z,86.20
2022-12-23T20:25:23.578Z,86.40
2022-12-23T20:27:50.151Z,86.40
2022-12-23T20:30:16.709Z,86.30
2022-12-23T20:32:43.220Z,86.20
2022-12-23T20:35:09.865Z,86.20
2022-12-23T20:37:36.402Z,86.30
2022-12-23T20:40:03.685Z,86.10
2022-12-23T20:42:31.177Z,86.20
2022-12-23T20:44:57.720Z,85.90
2022-12-23T20:47:24.248Z,86.20
2022-12-23T20:49:50.875Z,86.10
2022-12-23T20:52:17.560Z,85.80
2022-12-23T20:54:44.089Z,85.80
2022-12-23T20:57:10.725Z,85.90
2022-12-23T20:59:37.251Z,85.80
2022-12-23T21:02:03.841Z,85.80
2022-12-23T21:04:30.479Z,85.80
2022-12-23T21:06:57.079Z,85.80
2022-12-23T21:09:23.638Z,85.90
2022-12-23T21:11:50.301Z,85.80
2022-12-23T21:14:16.961Z,85.80
2022-12-23T21:16:43.634Z,85.70
2022-12-23T21:19:14.856Z,85.70
2022-12-23T21:21:42.605Z,85.70
2022-12-23T21:24:09.628Z,85.70
2022-12-23T21:26:36.320Z,85.70
2022-12-23T21:29:04.147Z,85.70
2022-12-23T21:31:31.741Z,85.90
2022-12-23T21:33:58.610Z,86.10
2022-12-23T21:36:26.691Z,86.10
2022-12-23T21:38:53.626Z,85.90
2022-12-23T21:41:21.692Z,85.90
2022-12-23T21:43:48.853Z,85.90
2022-12-23T21:46:16.345Z,85.90
2022-12-23T21:48:43.297Z,85.80
2022-12-23T21:51:09.857Z,86.10
2022-12-23T21:53:36.630Z,86.10
2022-12-23T21:56:04.216Z,86.10
2022-12-23T21:58:31.184Z,86.10
2022-12-23T22:00:58.039Z,86.10
2022-12-23T22:03:24.906Z,85.90
2022-12-23T22:05:51.630Z,85.80
2022-12-23T22:08:18.257Z,86.90
2022-12-23T22:10:45.637Z,87.90
2022-12-23T22:13:12.218Z,87.70
2022-12-23T22:15:44.156Z,87.50
2022-12-23T22:18:10.730Z,87.90
2022-12-23T22:20:44.234Z,87.60
2022-12-23T22:23:12.680Z,87.50
2022-12-23T22:25:39.246Z,87.10
2022-12-23T22:28:05.815Z,87.00
2022-12-23T22:30:32.389Z,87.10
2022-12-23T22:32:59.896Z,87.10
2022-12-23T22:35:27.885Z,87.50
2022-12-23T22:37:54.615Z,87.30
2022-12-23T22:40:21.217Z,87.60
2022-12-23T22:42:47.852Z,87.80
2022-12-23T22:45:14.469Z,87.80
2022-12-23T22:47:41.214Z,87.40
2022-12-23T22:50:08.388Z,87.00
2022-12-23T22:52:35.112Z,87.10
2022-12-23T22:55:01.931Z,86.80
2022-12-23T22:57:28.471Z,86.80
2022-12-23T22:59:55.474Z,86.50
2022-12-23T23:02:22.278Z,86.40
2022-12-23T23:04:49.376Z,86.50
2022-12-23T23:07:16.160Z,86.40
2022-12-23T23:09:43.012Z,86.60
2022-12-23T23:12:09.641Z,86.80
2022-12-23T23:15:05.714Z,87.00
2022-12-23T23:17:32.460Z,86.90
2022-12-23T23:19:59.026Z,86.70
2022-12-23T23:22:25.671Z,86.50
2022-12-23T23:24:52.307Z,86.50
2022-12-23T23:27:19.011Z,86.50
2022-12-23T23:29:45.667Z,86.40
2022-12-23T23:32:12.448Z,86.30
2022-12-23T23:34:40.590Z,86.20
2022-12-23T23:37:07.219Z,86.20
2022-12-23T23:39:33.808Z,86.20
2022-12-23T23:42:00.438Z,86.20
2022-12-23T23:44:27.083Z,86.30
2022-12-23T23:46:53.705Z,86.20
2022-12-23T23:49:20.870Z,86.20
2022-12-23T23:51:47.442Z,86.10
2022-12-23T23:54:13.998Z,86.10
2022-12-23T23:56:44.919Z,86.10
2022-12-23T23:59:11.622Z,86.30
